Time;durP1;ratioP1;P1;durP2;ratioP2;P2;SDS_P1;SDS_P2;PMS_P1;PMS_P2;Temp;Humidity;BMP_temperature;BMP_pressure;BME280_temperature;BME280_humidity;BME280_pressure;Samples;Min_cycle;Max_cycle;Signal;HPM_P1;HPM_P2
2020/12/01 00:00:41;;;;;;;40.92;24.10;;;;;;;1.98;89.90;99595.75;5092223;28;20221;-62
2020/12/01 00:03:07;;;;;;;39.25;23.65;;;;;;;1.93;89.92;99597.66;5090890;28;20673;-62
2020/12/01 00:05:34;;;;;;;39.60;22.13;;;;;;;2.02;89.53;99578.00;5091312;28;20226;-63
2020/12/01 00:08:00;;;;;;;40.45;22.88;;;;;;;2.04;89.66;99584.16;5091894;28;20200;-63
2020/12/01 00:10:28;;;;;;;40.30;23.67;;;;;;;2.12;88.95;99574.19;5091740;28;20224;-63
2020/12/01 00:12:54;;;;;;;44.05;23.63;;;;;;;2.04;88.86;99562.91;5092236;28;20189;-62
2020/12/01 00:15:22;;;;;;;44.28;25.38;;;;;;;2.03;88.68;99555.81;5091828;28;20280;-62
2020/12/01 00:17:50;;;;;;;40.55;24.67;;;;;;;2.07;89.32;99552.19;5091920;28;20752;-62
2020/12/01 00:20:20;;;;;;;36.63;22.13;;;;;;;2.19;89.26;99543.91;5091722;28;20227;-62
2020/12/01 00:22:46;;;;;;;39.10;22.42;;;;;;;2.15;88.62;99536.94;5092346;28;20955;-62
2020/12/01 00:25:13;;;;;;;39.28;23.38;;;;;;;2.11;88.95;99543.25;5089400;28;20706;-63
2020/12/01 00:27:40;;;;;;;43.33;23.50;;;;;;;2.18;89.01;99539.50;5072015;28;20185;-62
2020/12/01 00:30:09;;;;;;;40.40;22.10;;;;;;;2.23;88.69;99526.13;5072650;28;20224;-62
2020/12/01 00:32:35;;;;;;;40.95;23.23;;;;;;;2.20;88.72;99529.72;5071573;28;20238;-62
2020/12/01 00:35:04;;;;;;;38.65;22.63;;;;;;;2.23;88.96;99537.59;5072124;28;20950;-62
2020/12/01 00:37:30;;;;;;;40.25;22.40;;;;;;;2.27;88.81;99525.13;5071886;28;20181;-62
2020/12/01 00:39:56;;;;;;;40.80;22.05;;;;;;;2.25;89.11;99527.81;5071821;28;20228;-62
2020/12/01 00:42:22;;;;;;;39.35;24.27;;;;;;;2.16;90.07;99520.09;5071597;28;20251;-63
2020/12/01 00:44:49;;;;;;;36.75;21.85;;;;;;;2.18;90.34;99512.09;5072015;28;20720;-62
2020/12/01 00:47:15;;;;;;;42.17;23.23;;;;;;;2.19;90.67;99503.19;5071448;28;20537;-63
2020/12/01 00:49:42;;;;;;;38.78;22.23;;;;;;;2.35;89.75;99525.78;5071580;28;20201;-62
2020/12/01 00:52:09;;;;;;;37.50;21.30;;;;;;;2.28;89.72;99522.44;5090697;28;20199;-62
2020/12/01 00:54:36;;;;;;;41.28;22.70;;;;;;;2.26;89.92;99526.91;5091631;28;20584;-63
2020/12/01 00:57:02;;;;;;;35.95;21.10;;;;;;;2.22;90.43;99519.94;5091395;28;20660;-63
2020/12/01 00:59:29;;;;;;;43.33;23.02;;;;;;;2.17;90.51;99515.63;5078264;28;20308;-63
2020/12/01 01:01:55;;;;;;;36.33;21.30;;;;;;;2.19;90.86;99514.69;5071432;28;20634;-63
2020/12/01 01:04:21;;;;;;;38.95;22.65;;;;;;;2.47;89.68;99511.34;5071657;28;20201;-62
2020/12/01 01:06:49;;;;;;;39.72;22.63;;;;;;;2.36;89.74;99516.91;5073319;28;20212;-62
2020/12/01 01:09:16;;;;;;;40.20;23.42;;;;;;;2.74;88.19;99503.50;5074708;28;20692;-62
2020/12/01 01:11:43;;;;;;;34.17;21.75;;;;;;;2.82;87.31;99498.84;5074547;28;20205;-62
2020/12/01 01:14:10;;;;;;;34.83;20.88;;;;;;;2.54;87.85;99494.31;5074269;28;20631;-62
2020/12/01 01:16:39;;;;;;;32.92;20.55;;;;;;;2.56;88.60;99487.16;5074935;28;20610;-61
2020/12/01 01:19:06;;;;;;;35.42;20.52;;;;;;;2.68;88.25;99494.78;5074522;28;20216;-63
2020/12/01 01:21:32;;;;;;;33.15;20.08;;;;;;;2.70;87.86;99486.78;5085413;28;20196;-63
2020/12/01 01:23:58;;;;;;;37.50;21.67;;;;;;;2.50;88.20;99484.66;5074346;28;20197;-63
2020/12/01 01:26:25;;;;;;;32.05;20.17;;;;;;;2.34;89.33;99488.66;5074428;28;20246;-62
2020/12/01 01:28:51;;;;;;;35.22;19.25;;;;;;;2.55;89.16;99487.19;5074389;28;20197;-62
2020/12/01 01:31:18;;;;;;;38.85;21.67;;;;;;;2.41;89.07;99472.50;5074840;28;20196;-62
2020/12/01 01:33:45;;;;;;;36.38;20.95;;;;;;;2.28;90.25;99463.09;5074730;28;20642;-62
2020/12/01 01:36:11;;;;;;;38.83;23.05;;;;;;;2.22;91.12;99469.47;5074560;28;20666;-63
2020/12/01 01:38:37;;;;;;;38.15;21.92;;;;;;;2.30;91.01;99462.13;5074265;28;20204;-63
2020/12/01 01:41:04;;;;;;;35.33;20.42;;;;;;;2.36;91.45;99452.28;5073958;28;20264;-62
2020/12/01 01:43:31;;;;;;;41.75;21.35;;;;;;;2.63;89.34;99458.63;5074453;28;20604;-62
2020/12/01 01:45:57;;;;;;;34.80;20.52;;;;;;;2.40;89.66;99452.16;5074683;28;20200;-62
2020/12/01 01:48:27;;;;;;;37.63;21.77;;;;;;;2.36;90.83;99452.28;5073794;28;20291;-62
2020/12/01 01:50:59;;;;;;;39.53;20.30;;;;;;;2.34;91.35;99449.66;5074313;28;20227;-62
2020/12/01 01:53:26;;;;;;;41.78;22.27;;;;;;;2.36;90.82;99446.97;5074566;28;20187;-62
2020/12/01 01:55:57;;;;;;;34.28;20.60;;;;;;;2.56;88.98;99444.63;5074276;28;20203;-62
2020/12/01 01:58:29;;;;;;;35.20;20.98;;;;;;;2.55;89.67;99440.22;5073689;28;20229;-62
2020/12/01 02:01:02;;;;;;;35.15;20.05;;;;;;;2.75;88.82;99428.16;5073960;28;20292;-62
2020/12/01 02:03:32;;;;;;;33.90;20.08;;;;;;;2.67;88.44;99423.94;5073696;28;20636;-62
2020/12/01 02:05:59;;;;;;;32.13;20.30;;;;;;;2.70;88.64;99420.31;5073968;28;20534;-63
2020/12/01 02:08:27;;;;;;;32.33;20.35;;;;;;;2.57;89.04;99424.22;5073716;28;20265;-63
2020/12/01 02:10:55;;;;;;;37.53;21.85;;;;;;;2.48;89.97;99420.03;5073568;28;20197;-62
2020/12/01 02:13:28;;;;;;;38.03;20.67;;;;;;;2.38;91.15;99419.44;5073505;28;20208;-63
2020/12/01 02:15:56;;;;;;;39.63;20.52;;;;;;;2.42;90.69;99405.16;5077207;28;20185;-63
2020/12/01 02:18:30;;;;;;;37.70;20.73;;;;;;;2.58;91.30;99400.28;5091302;28;20224;-63
2020/12/01 02:20:57;;;;;;;34.92;19.98;;;;;;;2.42;91.27;99398.94;5093980;28;20234;-62
2020/12/01 02:23:24;;;;;;;32.50;20.40;;;;;;;2.51;91.71;99393.41;5093259;28;20242;-62
2020/12/01 02:25:51;;;;;;;40.72;21.85;;;;;;;2.46;91.66;99397.94;5093941;28;20204;-63
2020/12/01 02:28:19;;;;;;;40.03;21.42;;;;;;;2.58;91.50;99394.97;5093724;28;20655;-63
2020/12/01 02:30:45;;;;;;;35.17;20.60;;;;;;;2.70;90.07;99391.06;5093269;28;20199;-64
2020/12/01 02:33:11;;;;;;;32.92;19.80;;;;;;;2.77;89.42;99384.66;5093465;28;20668;-63
2020/12/01 02:35:37;;;;;;;34.00;20.05;;;;;;;2.79;89.57;99384.59;5093441;28;20215;-62
2020/12/01 02:38:04;;;;;;;32.75;20.75;;;;;;;2.59;90.46;99380.75;5083730;28;20564;-62
2020/12/01 02:40:30;;;;;;;34.60;20.50;;;;;;;2.40;91.78;99379.53;5072848;28;20290;-62
2020/12/01 02:42:56;;;;;;;35.67;21.10;;;;;;;2.59;91.88;99371.91;5072912;28;20290;-62
2020/12/01 02:45:23;;;;;;;35.15;21.50;;;;;;;2.52;91.54;99375.66;5073268;28;20259;-62
2020/12/01 02:47:50;;;;;;;31.40;18.92;;;;;;;2.30;92.83;99366.50;5093348;28;20184;-62
2020/12/01 02:50:16;;;;;;;39.15;20.58;;;;;;;2.27;94.08;99352.44;5087245;28;20599;-62
2020/12/01 02:52:42;;;;;;;35.50;20.10;;;;;;;2.28;94.65;99349.75;5073862;28;20232;-62
2020/12/01 02:55:09;;;;;;;34.50;19.95;;;;;;;2.27;94.62;99357.75;5072846;28;20224;-62
2020/12/01 02:57:35;;;;;;;36.63;21.50;;;;;;;2.53;92.64;99346.34;5072818;28;20197;-62
2020/12/01 03:00:01;;;;;;;36.05;19.88;;;;;;;2.43;93.29;99337.78;5072985;28;20220;-62
2020/12/01 03:02:28;;;;;;;37.47;20.67;;;;;;;2.30;93.98;99339.91;5076922;28;20192;-61
2020/12/01 03:04:54;;;;;;;32.70;20.13;;;;;;;2.52;93.88;99346.41;5092668;28;20188;-63
2020/12/01 03:07:20;;;;;;;37.88;20.27;;;;;;;2.63;93.30;99345.19;5092819;28;20284;-62
2020/12/01 03:09:47;;;;;;;35.75;20.63;;;;;;;2.84;90.78;99343.66;5092984;28;20215;-62
2020/12/01 03:15:35;;;;;;;32.70;20.10;;;;;;;2.38;92.74;99339.72;5092706;28;20666;-62
2020/12/01 03:18:02;;;;;;;35.70;20.48;;;;;;;2.36;93.63;99330.91;5092870;28;20207;-63
2020/12/01 03:20:28;;;;;;;31.42;19.60;;;;;;;2.47;93.88;99330.63;5092351;28;20204;-62
2020/12/01 03:22:54;;;;;;;32.67;20.05;;;;;;;2.46;93.08;99319.09;5092459;28;20184;-62
2020/12/01 03:25:20;;;;;;;36.28;21.20;;;;;;;2.46;93.16;99326.19;5092644;28;20191;-62
2020/12/01 03:27:46;;;;;;;34.85;19.77;;;;;;;2.52;93.28;99319.84;5092594;28;20634;-62
2020/12/01 03:30:12;;;;;;;31.58;19.10;;;;;;;2.45;93.19;99309.38;5091797;28;20184;-62
2020/12/01 03:32:39;;;;;;;29.95;19.13;;;;;;;2.47;93.26;99312.00;5083912;28;20185;-62
2020/12/01 03:35:06;;;;;;;31.63;20.38;;;;;;;2.62;93.36;99311.56;5071887;28;20189;-63
2020/12/01 03:37:32;;;;;;;37.17;20.20;;;;;;;2.58;93.34;99307.25;5072252;28;20295;-62
2020/12/01 03:39:58;;;;;;;29.95;17.77;;;;;;;2.66;92.69;99307.00;5072197;28;20246;-62
2020/12/01 03:42:24;;;;;;;30.23;18.05;;;;;;;2.64;92.80;99304.38;5072310;28;20673;-63
2020/12/01 03:44:50;;;;;;;28.08;18.30;;;;;;;2.61;92.62;99293.84;5072339;28;20305;-62
2020/12/01 03:47:17;;;;;;;29.65;16.98;;;;;;;2.58;93.30;99293.06;5071672;28;20283;-62
2020/12/01 03:49:43;;;;;;;29.67;18.13;;;;;;;2.64;93.45;99284.91;5072142;28;20641;-63
2020/12/01 03:52:11;;;;;;;29.70;17.02;;;;;;;2.70;93.03;99298.03;5071984;28;20204;-63
2020/12/01 03:54:37;;;;;;;28.38;19.38;;;;;;;2.78;92.10;99288.03;5071768;28;20192;-63
2020/12/01 03:57:03;;;;;;;30.58;16.95;;;;;;;2.91;91.20;99283.16;5072228;28;20276;-62
2020/12/01 03:59:29;;;;;;;29.05;17.48;;;;;;;2.99;90.31;99288.25;5071559;28;20315;-62
2020/12/01 04:01:56;;;;;;;30.00;17.42;;;;;;;2.87;91.46;99285.06;5072239;28;20320;-63
2020/12/01 04:04:28;;;;;;;30.17;17.00;;;;;;;2.79;91.80;99283.56;5071933;28;20239;-62
2020/12/01 04:06:54;;;;;;;23.85;15.32;;;;;;;2.84;92.89;99282.50;5071694;28;20189;-62
2020/12/01 04:09:21;;;;;;;24.98;16.10;;;;;;;3.01;91.27;99281.06;5072042;28;20238;-64
2020/12/01 04:11:47;;;;;;;25.65;16.25;;;;;;;2.84;91.49;99284.28;5071567;28;20272;-62
2020/12/01 04:14:14;;;;;;;26.45;15.82;;;;;;;2.71;92.48;99279.38;5071465;28;20239;-62
2020/12/01 04:16:40;;;;;;;24.67;14.90;;;;;;;2.98;92.31;99258.09;5071919;28;20226;-62
2020/12/01 04:19:06;;;;;;;28.20;16.85;;;;;;;2.92;91.73;99266.31;5071914;28;20237;-63
2020/12/01 04:21:32;;;;;;;25.88;15.75;;;;;;;2.77;92.23;99265.00;5071222;28;20316;-63
2020/12/01 04:23:58;;;;;;;25.05;14.90;;;;;;;2.83;93.50;99262.16;5071705;28;20276;-62
2020/12/01 04:26:25;;;;;;;24.90;15.23;;;;;;;2.97;93.34;99259.03;5071944;28;20574;-63
2020/12/01 04:28:52;;;;;;;25.73;15.27;;;;;;;3.04;92.16;99251.72;5071241;28;20272;-62
2020/12/01 04:31:18;;;;;;;21.63;14.18;;;;;;;2.87;92.73;99254.94;5071974;28;20212;-63
2020/12/01 04:33:44;;;;;;;25.65;14.85;;;;;;;2.84;93.30;99260.34;5084681;28;20283;-63
2020/12/01 04:36:11;;;;;;;24.40;15.35;;;;;;;2.94;93.58;99259.16;5091775;28;20309;-63
2020/12/01 04:38:37;;;;;;;22.63;13.88;;;;;;;3.33;90.26;99264.06;5092144;28;20949;-63
2020/12/01 04:41:04;;;;;;;24.45;14.48;;;;;;;3.00;91.34;99258.94;5092827;28;20227;-63
2020/12/01 04:43:35;;;;;;;24.95;13.80;;;;;;;2.90;92.84;99260.16;5095765;28;20198;-63
2020/12/01 04:46:02;;;;;;;26.02;14.60;;;;;;;2.90;93.60;99271.66;5095521;28;20277;-62
2020/12/01 04:48:36;;;;;;;29.77;17.58;;;;;;;3.02;92.89;99253.56;5095577;28;20185;-62
2020/12/01 04:51:11;;;;;;;24.48;14.77;;;;;;;2.97;93.51;99260.84;5092644;28;20528;-62
2020/12/01 04:53:57;;;;;;;26.23;15.80;;;;;;;3.11;92.89;99259.44;5076563;28;20185;-62
2020/12/01 04:56:49;;;;;;;22.42;15.35;;;;;;;3.11;91.69;99256.78;5075128;28;20734;-62
2020/12/01 04:59:45;;;;;;;24.45;14.85;;;;;;;3.06;92.30;99253.41;5064098;28;20264;-63
2020/12/01 05:02:38;;;;;;;26.38;15.63;;;;;;;3.19;91.43;99247.69;5068343;28;20283;-63
2020/12/01 05:05:21;;;;;;;25.98;15.27;;;;;;;3.21;91.67;99251.16;5074406;28;20346;-62
2020/12/01 05:08:11;;;;;;;23.10;13.35;;;;;;;3.17;91.02;99241.56;5074355;28;20186;-62
2020/12/01 05:10:39;;;;;;;26.38;15.80;;;;;;;3.07;91.88;99233.88;5074646;28;20196;-62
2020/12/01 05:13:17;;;;;;;25.80;15.52;;;;;;;3.08;92.37;99237.41;5074767;28;20203;-63
2020/12/01 05:15:48;;;;;;;27.92;16.13;;;;;;;3.42;91.08;99231.81;5074948;28;20229;-62
2020/12/01 05:18:18;;;;;;;25.50;16.38;;;;;;;3.40;90.47;99233.66;5074433;28;20197;-62
2020/12/01 05:20:48;;;;;;;30.90;16.17;;;;;;;3.16;91.06;99245.13;5074894;28;20372;-63
2020/12/01 05:23:17;;;;;;;26.15;16.35;;;;;;;3.00;93.21;99242.97;5074774;28;20292;-63
2020/12/01 05:25:43;;;;;;;23.45;16.27;;;;;;;3.33;91.80;99245.44;5074160;28;20206;-63
2020/12/01 05:28:11;;;;;;;29.08;16.80;;;;;;;3.20;92.64;99237.00;5074499;28;20295;-61
2020/12/01 05:30:39;;;;;;;24.92;15.77;;;;;;;3.10;93.05;99240.91;5074176;28;20202;-62
2020/12/01 05:33:19;;;;;;;30.67;18.27;;;;;;;3.02;93.92;99246.47;5074517;28;20282;-62
2020/12/01 05:35:58;;;;;;;39.15;22.00;;;;;;;2.95;95.03;99250.25;5074174;28;20215;-62
2020/12/01 05:38:24;;;;;;;28.40;17.13;;;;;;;2.92;95.55;99242.38;5074389;28;20182;-62
2020/12/01 05:40:53;;;;;;;29.77;18.08;;;;;;;3.13;94.61;99241.66;5074391;28;20229;-62
2020/12/01 05:43:25;;;;;;;27.75;17.25;;;;;;;3.07;94.93;99233.00;5074250;28;20280;-62
2020/12/01 05:45:51;;;;;;;31.63;18.80;;;;;;;3.02;96.21;99235.81;5073888;28;20225;-62
2020/12/01 05:48:34;;;;;;;31.80;17.98;;;;;;;3.10;97.39;99230.25;5074264;28;20242;-62
2020/12/01 05:51:04;;;;;;;30.70;18.25;;;;;;;3.11;97.18;99235.50;5084833;28;20202;-62
2020/12/01 05:53:30;;;;;;;32.90;18.45;;;;;;;3.01;97.34;99227.88;5093619;28;20218;-62
2020/12/01 05:56:06;;;;;;;31.58;18.15;;;;;;;3.15;97.72;99220.31;5093926;28;20280;-63
2020/12/01 05:58:38;;;;;;;33.40;18.40;;;;;;;3.04;97.02;99225.13;5081106;28;20235;-62
2020/12/01 06:01:04;;;;;;;36.50;19.10;;;;;;;3.04;97.94;99226.00;5073907;28;20211;-63
2020/12/01 06:03:43;;;;;;;33.42;17.92;;;;;;;3.02;98.36;99227.84;5089682;28;20280;-63
2020/12/01 06:06:11;;;;;;;32.35;17.33;;;;;;;3.08;98.09;99230.31;5093183;28;20266;-63
2020/12/01 06:08:45;;;;;;;31.77;17.25;;;;;;;3.18;97.53;99230.84;5094033;28;20190;-63
2020/12/01 06:11:28;;;;;;;32.38;18.80;;;;;;;3.26;97.10;99231.47;5093471;28;20189;-62
2020/12/01 06:13:59;;;;;;;31.67;17.50;;;;;;;3.24;97.19;99225.34;5093692;28;20515;-62
2020/12/01 06:16:35;;;;;;;28.25;17.60;;;;;;;3.21;97.08;99222.78;5082448;28;20185;-63
2020/12/01 06:19:14;;;;;;;23.88;15.73;;;;;;;3.58;95.91;99223.28;5082388;28;20220;-63
2020/12/01 06:21:55;;;;;;;35.65;18.20;;;;;;;3.47;95.52;99224.53;5072736;28;20218;-63
2020/12/01 06:24:56;;;;;;;30.20;16.73;;;;;;;3.37;95.13;99220.47;5053470;28;20531;-63
2020/12/01 06:27:55;;;;;;;29.42;17.15;;;;;;;3.39;95.24;99225.72;5045184;28;20206;-62
2020/12/01 06:31:03;;;;;;;25.80;15.50;;;;;;;3.32;96.25;99231.28;5072720;28;20230;-63
2020/12/01 06:33:58;;;;;;;31.83;17.83;;;;;;;3.50;95.97;99220.88;5061475;28;20278;-62
2020/12/01 06:37:13;;;;;;;22.65;15.48;;;;;;;3.73;93.64;99233.38;5052043;28;20308;-62
2020/12/01 06:39:49;;;;;;;27.40;15.20;;;;;;;3.75;92.77;99228.84;5052944;28;20263;-62
2020/12/01 06:42:20;;;;;;;29.23;17.27;;;;;;;3.47;94.13;99219.19;5052407;28;20694;-63
2020/12/01 06:44:55;;;;;;;35.05;19.95;;;;;;;3.21;95.47;99229.88;5052041;28;20280;-63
2020/12/01 06:47:28;;;;;;;36.75;20.27;;;;;;;3.23;96.55;99222.72;5052758;28;20194;-63
2020/12/01 06:49:57;;;;;;;35.60;21.30;;;;;;;3.23;97.39;99228.03;5052338;28;20187;-64
2020/12/01 06:52:24;;;;;;;34.78;20.65;;;;;;;3.31;97.39;99229.50;5052530;28;20235;-63
2020/12/01 06:54:53;;;;;;;36.90;20.25;;;;;;;3.32;97.49;99233.03;5055165;28;20325;-62
2020/12/01 06:57:26;;;;;;;39.42;20.33;;;;;;;3.41;97.20;99224.72;5071480;28;20205;-63
2020/12/01 06:59:53;;;;;;;34.83;18.38;;;;;;;3.65;96.84;99227.47;5071930;28;20237;-63
2020/12/01 07:02:26;;;;;;;29.20;16.20;;;;;;;3.84;93.13;99225.84;5072168;28;20270;-63
2020/12/01 07:05:03;;;;;;;28.40;15.45;;;;;;;3.71;93.14;99235.25;5071087;28;20189;-63
2020/12/01 07:07:33;;;;;;;28.02;17.02;;;;;;;3.52;95.50;99229.69;5072564;28;20604;-63
2020/12/01 07:10:15;;;;;;;26.30;15.95;;;;;;;3.61;96.66;99223.16;5071742;28;20241;-63
2020/12/01 07:12:50;;;;;;;29.33;15.60;;;;;;;3.60;96.21;99229.44;5049296;28;20256;-62
2020/12/01 07:15:28;;;;;;;26.80;15.40;;;;;;;3.93;93.28;99236.19;5050030;28;20635;-63
2020/12/01 07:18:03;;;;;;;29.70;15.32;;;;;;;3.89;93.93;99231.91;5049257;28;20225;-64
2020/12/01 07:20:41;;;;;;;28.60;16.80;;;;;;;3.94;93.25;99235.25;5049544;28;20232;-63
2020/12/01 07:23:25;;;;;;;23.23;14.52;;;;;;;3.94;92.46;99237.06;5050543;28;20934;-63
2020/12/01 07:25:59;;;;;;;26.92;16.23;;;;;;;3.64;94.31;99239.03;5049681;28;20622;-62
2020/12/01 07:28:35;;;;;;;28.52;15.35;;;;;;;3.96;94.87;99228.09;5043466;28;20188;-62
2020/12/01 07:31:04;;;;;;;27.73;15.30;;;;;;;3.95;93.73;99230.78;5044966;28;20241;-62
2020/12/01 07:33:32;;;;;;;23.13;14.55;;;;;;;3.79;93.50;99230.50;5049535;28;20201;-62
2020/12/01 07:36:14;;;;;;;22.23;13.75;;;;;;;3.63;94.81;99231.97;5048865;28;20516;-63
2020/12/01 07:38:44;;;;;;;27.88;15.60;;;;;;;3.79;95.48;99243.81;5056918;28;20189;-62
2020/12/01 07:41:22;;;;;;;23.30;13.85;;;;;;;3.97;92.31;99237.81;5059481;28;20240;-61
2020/12/01 07:43:58;;;;;;;25.23;15.50;;;;;;;3.97;92.15;99235.13;5049101;28;20201;-61
2020/12/01 07:46:25;;;;;;;23.92;13.18;;;;;;;3.80;92.90;99239.34;5049536;28;20229;-63
2020/12/01 07:49:00;;;;;;;25.45;13.35;;;;;;;3.94;93.41;99240.59;5056755;28;20205;-61
2020/12/01 07:51:29;;;;;;;19.58;13.40;;;;;;;3.87;92.75;99244.41;5091754;28;20199;-62
2020/12/01 07:53:58;;;;;;;23.63;14.50;;;;;;;3.64;92.73;99239.91;5092513;28;20186;-62
2020/12/01 07:56:26;;;;;;;18.42;12.52;;;;;;;3.91;91.91;99238.06;5077937;28;20204;-63
2020/12/01 07:59:01;;;;;;;17.52;10.50;;;;;;;4.02;91.09;99240.28;5070609;28;20319;-61
2020/12/01 08:01:28;;;;;;;19.75;11.40;;;;;;;3.87;91.17;99235.56;5071411;28;20313;-61
2020/12/01 08:04:05;;;;;;;18.25;11.32;;;;;;;3.70;92.43;99242.34;5071724;28;20205;-62
2020/12/01 08:06:31;;;;;;;22.45;13.55;;;;;;;3.64;93.93;99247.00;5071520;28;20202;-62
2020/12/01 08:08:57;;;;;;;25.35;13.18;;;;;;;3.64;94.58;99252.34;5087005;28;20289;-62
2020/12/01 08:11:24;;;;;;;27.00;17.67;;;;;;;3.71;95.23;99249.41;5086150;28;20222;-63
2020/12/01 08:13:53;;;;;;;30.85;18.48;;;;;;;3.57;95.08;99256.16;5071199;28;20683;-64
2020/12/01 08:16:23;;;;;;;34.72;17.33;;;;;;;3.56;94.79;99252.63;5075262;28;20831;-63
2020/12/01 08:18:53;;;;;;;33.63;20.45;;;;;;;3.38;95.41;99254.13;5086389;28;20196;-61
2020/12/01 08:21:23;;;;;;;34.67;21.83;;;;;;;3.59;95.84;99251.63;5093638;28;20590;-62
2020/12/01 08:23:53;;;;;;;30.60;18.25;;;;;;;3.52;95.73;99254.50;5075543;28;20190;-62
2020/12/01 08:26:24;;;;;;;30.25;20.08;;;;;;;3.59;95.71;99260.50;5075412;28;20535;-63
2020/12/01 08:29:00;;;;;;;30.75;17.90;;;;;;;3.61;96.25;99260.44;5075411;28;20220;-62
2020/12/01 08:31:34;;;;;;;37.65;22.50;;;;;;;3.66;96.55;99255.81;5083497;28;20193;-61
2020/12/01 08:34:12;;;;;;;29.20;19.00;;;;;;;3.79;96.25;99259.78;5075326;28;20203;-62
2020/12/01 08:36:50;;;;;;;33.03;20.00;;;;;;;3.80;94.61;99258.88;5079063;28;20553;-64
2020/12/01 08:39:48;;;;;;;25.80;16.95;;;;;;;3.62;93.76;99257.75;5095013;28;20610;-63
2020/12/01 08:42:22;;;;;;;28.98;17.17;;;;;;;3.65;94.56;99259.41;5083783;28;20378;-63
2020/12/01 08:45:02;;;;;;;23.98;15.40;;;;;;;3.79;94.42;99264.25;5075099;28;20265;-62
2020/12/01 08:47:30;;;;;;;27.50;17.75;;;;;;;3.85;94.33;99264.03;5075231;28;20219;-63
2020/12/01 08:49:57;;;;;;;31.67;16.67;;;;;;;3.85;94.64;99267.56;5078342;28;20192;-63
2020/12/01 08:52:38;;;;;;;27.73;16.55;;;;;;;3.83;94.24;99263.22;5075313;28;20238;-63
2020/12/01 08:55:24;;;;;;;33.45;18.17;;;;;;;3.83;94.46;99265.88;5074555;28;20516;-63
2020/12/01 08:57:59;;;;;;;34.05;22.75;;;;;;;3.81;94.53;99252.63;5074773;28;20234;-64
2020/12/01 09:00:26;;;;;;;27.80;17.05;;;;;;;3.86;94.15;99261.31;5074069;28;20377;-61
2020/12/01 09:02:53;;;;;;;29.13;17.10;;;;;;;3.93;93.55;99260.19;5055121;28;20219;-65
2020/12/01 09:05:30;;;;;;;25.60;17.55;;;;;;;3.73;94.02;99252.00;5057143;28;20225;-63
2020/12/01 09:08:19;;;;;;;26.33;15.68;;;;;;;3.98;93.89;99257.34;5084342;28;20191;-62
2020/12/01 09:10:45;;;;;;;25.55;16.98;;;;;;;4.09;92.87;99265.81;5094672;28;20222;-62
2020/12/01 09:13:21;;;;;;;27.80;16.88;;;;;;;4.08;93.47;99263.19;5094773;28;20201;-62
2020/12/01 09:16:07;;;;;;;35.63;27.55;;;;;;;4.18;93.25;99256.56;5057861;28;20253;-64
2020/12/01 09:19:03;;;;;;;28.35;18.38;;;;;;;4.10;93.30;99258.69;5070754;28;20510;-62
2020/12/01 09:24:25;;;;;;;24.60;13.85;;;;;;;4.10;93.49;99250.69;5038339;28;20282;-62
2020/12/01 09:27:03;;;;;;;30.33;16.05;;;;;;;4.25;93.04;99254.56;5074036;28;20190;-64
2020/12/01 09:29:30;;;;;;;24.48;15.60;;;;;;;4.39;92.71;99250.44;5074775;28;20547;-64
2020/12/01 09:31:57;;;;;;;27.55;15.68;;;;;;;4.28;93.05;99257.13;5074028;28;20210;-63
2020/12/01 09:34:24;;;;;;;23.95;15.38;;;;;;;4.25;93.08;99257.22;5074132;28;20200;-62
2020/12/01 09:36:58;;;;;;;38.05;21.70;;;;;;;4.22;93.41;99258.22;5074305;28;20260;-63
2020/12/01 09:39:24;;;;;;;26.00;16.02;;;;;;;4.10;93.12;99253.34;5073908;28;20204;-63
2020/12/01 09:42:00;;;;;;;26.02;15.05;;;;;;;4.17;92.75;99262.84;5074497;28;20207;-64
2020/12/01 09:44:46;;;;;;;25.35;14.10;;;;;;;4.32;91.79;99264.06;5074400;28;20201;-64
2020/12/01 09:47:17;;;;;;;20.58;16.15;;;;;;;4.29;92.26;99266.84;5073925;28;20659;-64
2020/12/01 09:49:44;;;;;;;22.38;15.25;;;;;;;4.21;93.04;99266.28;5084804;28;20203;-63
2020/12/01 09:52:14;;;;;;;24.73;15.55;;;;;;;4.30;93.42;99265.94;5074116;28;20203;-63
2020/12/01 09:54:45;;;;;;;25.65;16.75;;;;;;;4.59;90.26;99260.34;5073948;28;20254;-64
2020/12/01 09:57:16;;;;;;;25.77;15.80;;;;;;;4.48;89.84;99254.56;5073687;28;20186;-63
2020/12/01 09:59:52;;;;;;;27.83;17.05;;;;;;;4.42;91.38;99257.44;5073502;28;20238;-63
2020/12/01 10:08:16;;;;;;;26.42;16.35;;;;;;;4.11;93.95;99263.06;5074001;28;20279;-65
2020/12/01 10:10:58;;;;;;;23.48;15.68;;;;;;;4.36;93.62;99255.91;5090380;28;20187;-64
2020/12/01 10:35:31;;;;;;;31.67;21.48;;;;;;;4.56;90.39;99262.25;5072676;28;20494;-64
2020/12/01 10:37:59;;;;;;;36.65;19.55;;;;;;;4.44;92.12;99263.59;5072821;28;20245;-64
2020/12/01 10:40:28;;;;;;;36.40;21.75;;;;;;;4.29;92.62;99261.50;5072881;28;20614;-64
2020/12/01 10:42:55;;;;;;;29.63;18.58;;;;;;;4.17;93.34;99258.38;5072647;28;20245;-64
2020/12/01 10:45:23;;;;;;;33.25;17.88;;;;;;;4.16;92.80;99259.31;5075509;28;20537;-63
2020/12/01 10:47:49;;;;;;;30.25;18.45;;;;;;;4.11;92.79;99260.41;5081553;28;20286;-63
2020/12/01 10:50:17;;;;;;;32.97;18.73;;;;;;;4.30;93.18;99260.59;5077621;28;20584;-63
2020/12/01 10:52:43;;;;;;;31.52;20.10;;;;;;;4.45;92.31;99251.13;5084025;28;20271;-64
2020/12/01 10:55:14;;;;;;;28.02;17.83;;;;;;;4.46;92.81;99250.22;5072305;28;20234;-64
2020/12/01 10:57:41;;;;;;;30.73;19.35;;;;;;;4.48;92.54;99246.56;5072083;28;20245;-64
2020/12/01 11:00:11;;;;;;;35.55;20.27;;;;;;;4.55;92.01;99252.53;5073416;28;20191;-63
2020/12/01 11:02:37;;;;;;;34.42;21.33;;;;;;;4.71;92.12;99245.66;5083888;28;20309;-64
2020/12/01 11:05:06;;;;;;;33.55;21.88;;;;;;;4.59;92.00;99244.34;5072532;28;20642;-63
2020/12/01 11:07:32;;;;;;;34.88;20.08;;;;;;;4.62;92.55;99248.69;5073071;28;20256;-64
2020/12/01 11:09:59;;;;;;;32.95;20.80;;;;;;;4.27;92.81;99256.22;5071700;28;20608;-62
2020/12/01 11:12:25;;;;;;;40.20;21.05;;;;;;;4.24;93.51;99251.03;5071898;28;20230;-64
2020/12/01 11:14:52;;;;;;;36.13;21.95;;;;;;;4.34;93.71;99252.44;5071742;28;20276;-63
2020/12/01 11:17:18;;;;;;;36.08;22.88;;;;;;;4.53;93.43;99241.06;5077210;28;20675;-63
2020/12/01 11:19:44;;;;;;;38.50;20.85;;;;;;;4.49;93.45;99242.09;5089320;28;20947;-65
2020/12/01 11:22:13;;;;;;;32.80;20.88;;;;;;;4.62;92.77;99248.69;5078497;28;20325;-63
2020/12/01 11:24:39;;;;;;;32.10;20.75;;;;;;;4.15;93.37;99254.03;5091231;28;20201;-63
2020/12/01 11:27:05;;;;;;;33.50;19.42;;;;;;;4.33;94.15;99256.00;5092432;28;20307;-63
2020/12/01 11:29:32;;;;;;;33.85;19.92;;;;;;;4.50;93.96;99243.81;5092168;28;20262;-63
2020/12/01 11:31:59;;;;;;;38.15;20.95;;;;;;;4.14;94.96;99250.50;5090944;28;20895;-63
2020/12/01 11:34:25;;;;;;;50.58;29.98;;;;;;;4.31;96.01;99249.88;5073457;28;20686;-63
2020/12/01 11:36:54;;;;;;;57.55;32.83;;;;;;;4.46;96.66;99245.75;5071489;28;20278;-63
2020/12/01 11:39:20;;;;;;;40.78;22.23;;;;;;;4.44;95.54;99246.75;5091166;28;20206;-63
2020/12/01 11:41:46;;;;;;;36.78;21.58;;;;;;;4.31;95.68;99246.34;5091821;28;20227;-63
2020/12/01 11:44:13;;;;;;;41.58;22.17;;;;;;;4.34;96.38;99243.53;5087533;28;20198;-64
2020/12/01 11:46:39;;;;;;;36.20;21.75;;;;;;;4.41;96.07;99244.19;5091882;28;20197;-64
2020/12/01 11:49:07;;;;;;;42.30;23.50;;;;;;;4.16;95.85;99246.00;5076776;28;20588;-63
2020/12/01 11:51:35;;;;;;;36.40;22.63;;;;;;;3.97;96.83;99243.13;5071513;28;20274;-63
2020/12/01 11:54:02;;;;;;;35.28;21.05;;;;;;;4.20;96.81;99249.41;5071697;28;20199;-63
2020/12/01 11:56:29;;;;;;;38.90;20.77;;;;;;;4.42;96.03;99243.25;5071065;28;20231;-64
2020/12/01 11:58:55;;;;;;;31.40;21.20;;;;;;;4.54;95.54;99248.09;5070675;28;20233;-63
2020/12/01 12:01:22;;;;;;;43.03;23.13;;;;;;;4.72;93.39;99243.84;5071370;28;20660;-64
2020/12/01 12:03:48;;;;;;;38.35;21.63;;;;;;;4.39;93.73;99245.13;5071215;28;20338;-63
2020/12/01 12:06:16;;;;;;;33.95;21.05;;;;;;;4.50;94.37;99244.72;5071416;28;20189;-64
2020/12/01 12:08:43;;;;;;;34.42;21.08;;;;;;;4.48;93.59;99249.22;5071997;28;20637;-63
2020/12/01 12:11:09;;;;;;;35.40;20.85;;;;;;;4.64;93.89;99252.16;5070715;28;20246;-64
2020/12/01 12:13:36;;;;;;;39.50;20.33;;;;;;;4.66;92.75;99255.66;5051418;28;20226;-64